createdAt,value
2023-09-01T00:01:16.304Z,61.30
2023-09-01T00:03:43.365Z,60.60
2023-09-01T00:06:15.632Z,61.26
2023-09-01T00:08:43.184Z,61.00
2023-09-01T00:11:10.895Z,60.88
2023-09-01T00:13:37.506Z,60.98
2023-09-01T00:16:04.254Z,60.92
2023-09-01T00:18:31.366Z,61.00
2023-09-01T00:20:59.756Z,61.05
2023-09-01T00:23:26.613Z,61.16
2023-09-01T00:25:54.516Z,61.40
2023-09-01T00:28:21.047Z,60.96
2023-09-01T00:30:54.440Z,61.09
2023-09-01T00:33:21.071Z,61.18
2023-09-01T00:35:51.524Z,61.38
2023-09-01T00:38:18.722Z,61.13
2023-09-01T00:40:46.339Z,61.10
2023-09-01T00:43:13.522Z,61.55
2023-09-01T00:45:40.587Z,61.19
2023-09-01T00:48:08.856Z,61.13
2023-09-01T00:50:37.682Z,61.56
2023-09-01T00:53:06.569Z,61.12
2023-09-01T00:55:37.007Z,61.40
2023-09-01T00:58:04.035Z,61.41
2023-09-01T01:00:33.179Z,61.32
2023-09-01T01:03:05.685Z,61.22
2023-09-01T01:06:01.375Z,61.41
2023-09-01T01:08:45.311Z,61.21
2023-09-01T01:11:53.690Z,61.51
2023-09-01T01:14:28.369Z,61.31
2023-09-01T01:16:56.796Z,61.36
2023-09-01T01:19:55.500Z,61.58
2023-09-01T01:22:35.369Z,61.28
2023-09-01T01:25:05.383Z,61.18
2023-09-01T01:27:31.950Z,61.33
2023-09-01T01:29:58.392Z,61.62
2023-09-01T01:32:25.041Z,61.77
2023-09-01T01:35:05.334Z,61.69
2023-09-01T01:37:42.321Z,61.30
2023-09-01T01:40:09.812Z,61.28
2023-09-01T01:42:38.085Z,61.55
2023-09-01T01:45:06.013Z,61.54
2023-09-01T01:47:33.763Z,61.46
2023-09-01T01:50:00.362Z,61.64
2023-09-01T01:52:26.813Z,61.81
2023-09-01T01:54:53.266Z,61.35
2023-09-01T01:57:19.867Z,61.31
2023-09-01T01:59:46.543Z,61.50
2023-09-01T02:02:13.027Z,61.61
2023-09-01T02:04:39.549Z,61.55
2023-09-01T02:07:06.745Z,61.53
2023-09-01T02:09:34.736Z,61.46
2023-09-01T02:12:01.193Z,61.69
2023-09-01T02:14:27.721Z,61.51
2023-09-01T02:16:54.183Z,61.38
2023-09-01T02:19:20.598Z,61.52
2023-09-01T02:21:47.041Z,61.56
2023-09-01T02:24:13.456Z,61.69
2023-09-01T02:26:39.903Z,61.51
2023-09-01T02:29:06.502Z,61.74
2023-09-01T02:31:33.158Z,61.42
2023-09-01T02:33:59.646Z,61.41
2023-09-01T02:36:35.830Z,61.84
2023-09-01T02:39:05.781Z,61.40
2023-09-01T02:41:32.228Z,61.75
2023-09-01T02:43:58.801Z,61.58
2023-09-01T02:46:25.569Z,61.60
2023-09-01T02:48:52.182Z,61.39
2023-09-01T02:51:19.178Z,61.82
2023-09-01T02:53:46.326Z,61.60
2023-09-01T02:56:12.849Z,61.91
2023-09-01T02:58:39.423Z,61.77
2023-09-01T03:01:10.342Z,61.55
2023-09-01T03:03:39.293Z,61.74
2023-09-01T03:06:06.776Z,61.61
2023-09-01T03:08:33.641Z,61.31
2023-09-01T03:11:00.366Z,61.78
2023-09-01T03:13:27.193Z,61.64
2023-09-01T03:15:57.606Z,61.77
2023-09-01T03:18:25.086Z,61.59
2023-09-01T03:20:54.118Z,61.47
2023-09-01T03:23:24.189Z,61.88
2023-09-01T03:25:55.712Z,61.75
2023-09-01T03:28:22.370Z,62.03
2023-09-01T03:30:48.877Z,61.79
2023-09-01T03:33:16.470Z,61.92
2023-09-01T03:35:42.880Z,61.59
2023-09-01T03:38:09.948Z,61.98
2023-09-01T03:40:37.296Z,61.86
2023-09-01T03:43:03.913Z,61.81
2023-09-01T03:45:30.434Z,61.53
2023-09-01T03:47:56.924Z,61.66
2023-09-01T03:50:23.444Z,61.51
2023-09-01T03:52:50.106Z,61.83
2023-09-01T03:55:16.594Z,61.87
2023-09-01T03:57:45.287Z,61.89
2023-09-01T04:00:12.963Z,61.69
2023-09-01T04:02:39.497Z,61.80
2023-09-01T04:05:06.528Z,61.88
2023-09-01T04:07:32.985Z,61.56
2023-09-01T04:09:59.455Z,61.94
2023-09-01T04:12:25.982Z,61.83
2023-09-01T04:14:52.500Z,61.58
2023-09-01T04:17:18.958Z,61.79
2023-09-01T04:19:51.174Z,61.82
2023-09-01T04:22:17.577Z,61.92
2023-09-01T04:24:44.727Z,61.96
2023-09-01T04:27:11.236Z,62.04
2023-09-01T04:29:39.591Z,62.02
2023-09-01T04:32:06.363Z,61.88
2023-09-01T04:34:33.662Z,62.20
2023-09-01T04:37:04.726Z,62.12
2023-09-01T04:39:31.260Z,61.75
2023-09-01T04:41:57.755Z,61.63
2023-09-01T04:44:24.281Z,62.15
2023-09-01T04:46:50.658Z,61.76
2023-09-01T04:49:17.067Z,62.28
2023-09-01T04:51:43.849Z,62.31
2023-09-01T04:54:10.567Z,61.79
2023-09-01T04:56:37.054Z,62.22
2023-09-01T04:59:03.542Z,62.16
2023-09-01T05:01:30.509Z,62.09
2023-09-01T05:03:57.003Z,61.92
2023-09-01T05:06:23.560Z,61.89
2023-09-01T05:08:49.984Z,62.32
2023-09-01T05:11:16.454Z,62.25
2023-09-01T05:13:42.949Z,61.87
2023-09-01T05:16:11.742Z,62.03
2023-09-01T05:18:38.250Z,62.50
2023-09-01T05:21:04.709Z,62.56
2023-09-01T05:23:33.410Z,62.83
2023-09-01T05:25:59.932Z,62.73
2023-09-01T05:28:26.465Z,63.11
2023-09-01T05:30:52.906Z,63.31
2023-09-01T05:33:19.353Z,63.42
2023-09-01T05:35:46.166Z,63.03
2023-09-01T05:38:12.744Z,63.08
2023-09-01T05:40:39.317Z,63.29
2023-09-01T05:43:05.876Z,63.34
2023-09-01T05:45:32.394Z,63.17
2023-09-01T05:47:58.885Z,62.96
2023-09-01T05:50:25.423Z,63.43
2023-09-01T05:52:51.905Z,63.40
2023-09-01T05:55:18.337Z,63.88
2023-09-01T05:57:45.023Z,63.36
2023-09-01T06:00:11.891Z,63.42
2023-09-01T06:02:38.393Z,63.76
2023-09-01T06:05:06.304Z,63.42
2023-09-01T06:07:32.727Z,63.37
2023-09-01T06:09:59.847Z,63.77
2023-09-01T06:12:26.391Z,63.07
2023-09-01T06:14:52.867Z,63.50
2023-09-01T06:17:20.950Z,63.39
2023-09-01T06:19:50.921Z,63.44
2023-09-01T06:22:17.469Z,63.50
2023-09-01T06:24:43.933Z,63.24
2023-09-01T06:27:10.420Z,63.11
2023-09-01T06:29:36.884Z,63.28
2023-09-01T06:32:04.997Z,63.13
2023-09-01T06:34:31.576Z,63.23
2023-09-01T06:36:58.827Z,63.07
2023-09-01T06:39:25.267Z,62.75
2023-09-01T06:41:51.694Z,63.26
2023-09-01T06:44:18.150Z,63.11
2023-09-01T06:46:44.816Z,63.39
2023-09-01T06:49:11.793Z,63.01
2023-09-01T06:51:38.755Z,62.60
2023-09-01T06:54:06.271Z,62.93
2023-09-01T06:56:32.697Z,62.65
2023-09-01T06:58:59.303Z,62.82
2023-09-01T07:01:28.911Z,62.79
2023-09-01T07:03:55.849Z,62.66
2023-09-01T07:06:22.300Z,63.03
2023-09-01T07:08:48.798Z,62.84
2023-09-01T07:11:20.507Z,62.71
2023-09-01T07:13:48.045Z,62.55
2023-09-01T07:16:14.888Z,62.49
2023-09-01T07:18:42.369Z,62.87
2023-09-01T07:21:08.876Z,62.66
2023-09-01T07:23:35.488Z,62.42
2023-09-01T07:26:02.096Z,62.58
2023-09-01T07:28:28.640Z,62.49
2023-09-01T07:30:55.129Z,62.78
2023-09-01T07:33:21.840Z,62.61
2023-09-01T07:35:50.432Z,62.97
2023-09-01T07:38:17.841Z,62.46
2023-09-01T07:40:46.564Z,62.75
2023-09-01T07:43:13.310Z,62.95
2023-09-01T07:45:40.872Z,62.49
2023-09-01T07:48:20.622Z,62.94
2023-09-01T07:50:49.789Z,62.80
2023-09-01T07:53:16.984Z,62.75
2023-09-01T07:55:43.503Z,62.86
2023-09-01T07:58:09.907Z,62.32
2023-09-01T08:00:38.796Z,62.84
2023-09-01T08:03:07.022Z,62.56
2023-09-01T08:05:33.671Z,62.83
2023-09-01T08:08:00.116Z,62.71
2023-09-01T08:10:26.614Z,62.10
2023-09-01T08:12:53.011Z,62.80
2023-09-01T08:15:19.524Z,62.51
2023-09-01T08:17:46.883Z,62.79
2023-09-01T08:20:14.704Z,62.74
2023-09-01T08:22:42.058Z,62.58
2023-09-01T08:25:10.215Z,62.31
2023-09-01T08:27:36.705Z,62.79
2023-09-01T08:30:04.784Z,62.82
2023-09-01T08:32:31.332Z,62.38
2023-09-01T08:34:57.798Z,62.64
2023-09-01T08:37:24.333Z,62.51
2023-09-01T08:39:50.758Z,62.38
2023-09-01T08:42:19.561Z,62.33
2023-09-01T08:44:46.973Z,62.30
2023-09-01T08:47:16.582Z,62.30
2023-09-01T08:49:43.108Z,62.17
2023-09-01T08:52:11.429Z,62.38
2023-09-01T08:54:39.008Z,62.22
2023-09-01T08:57:05.544Z,62.71
2023-09-01T08:59:32.938Z,62.54
2023-09-01T09:02:00.689Z,62.53
2023-09-01T09:04:27.787Z,62.52
2023-09-01T09:06:54.510Z,62.40
2023-09-01T09:09:22.170Z,62.94
2023-09-01T09:12:00.996Z,62.41
2023-09-01T09:30:09.922Z,63.15
2023-09-01T09:32:36.476Z,63.08
2023-09-01T09:35:11.926Z,63.07
2023-09-01T09:37:40.910Z,63.06
2023-09-01T09:40:16.951Z,63.39
2023-09-01T09:42:47.440Z,63.50
2023-09-01T09:45:34.315Z,63.11
2023-09-01T09:48:06.079Z,62.92
2023-09-01T09:50:34.547Z,63.07
2023-09-01T09:53:03.756Z,63.27
2023-09-01T09:55:40.434Z,62.91
2023-09-01T09:58:09.023Z,63.28
2023-09-01T10:00:54.559Z,62.88
2023-09-01T10:03:24.709Z,63.30
2023-09-01T10:05:52.410Z,63.19
2023-09-01T10:08:21.800Z,63.43
2023-09-01T10:10:50.293Z,63.44
2023-09-01T10:13:17.832Z,63.14
2023-09-01T10:15:47.445Z,63.42
2023-09-01T10:18:14.484Z,62.84
2023-09-01T10:20:44.560Z,62.78
2023-09-01T10:23:12.256Z,62.77
2023-09-01T10:25:38.943Z,63.48
2023-09-01T10:28:12.031Z,62.85
2023-09-01T10:30:41.172Z,62.97
2023-09-01T10:33:07.865Z,63.20
2023-09-01T10:35:48.912Z,63.34
2023-09-01T10:38:33.730Z,62.87
2023-09-01T10:41:00.699Z,63.13
2023-09-01T10:43:36.679Z,62.84
2023-09-01T10:46:18.299Z,63.46
2023-09-01T10:48:51.413Z,63.05
2023-09-01T10:51:38.363Z,63.03
2023-09-01T10:54:17.241Z,62.83
2023-09-01T10:57:03.889Z,63.33
2023-09-01T10:59:37.846Z,62.97
2023-09-01T11:02:33.783Z,63.25
2023-09-01T11:05:01.018Z,62.87
2023-09-01T11:07:27.637Z,62.79
2023-09-01T11:09:57.497Z,63.18
2023-09-01T11:12:30.523Z,62.58
2023-09-01T11:15:00.264Z,62.54
2023-09-01T11:17:45.320Z,63.09
2023-09-01T11:20:14.476Z,63.58
2023-09-01T11:22:42.928Z,63.33
2023-09-01T11:25:12.631Z,63.32
2023-09-01T11:27:43.441Z,63.72
2023-09-01T11:30:10.515Z,63.35
2023-09-01T11:32:37.097Z,63.28
2023-09-01T11:35:05.022Z,63.59
2023-09-01T11:37:41.774Z,63.33
2023-09-01T11:40:13.773Z,63.31
2023-09-01T11:42:43.069Z,63.19
2023-09-01T11:45:11.467Z,63.02
2023-09-01T11:47:38.738Z,63.46
2023-09-01T11:50:06.012Z,63.41
2023-09-01T11:52:32.572Z,63.56
2023-09-01T11:54:59.193Z,63.16
2023-09-01T11:57:25.705Z,63.18
2023-09-01T11:59:52.388Z,62.85
2023-09-01T12:02:20.521Z,62.84
2023-09-01T12:04:51.854Z,62.78
2023-09-01T12:07:26.206Z,63.02
2023-09-01T12:09:53.780Z,62.95
2023-09-01T12:12:20.503Z,62.73
2023-09-01T12:14:47.812Z,61.68
2023-09-01T12:17:22.161Z,61.39
2023-09-01T12:19:52.476Z,61.41
2023-09-01T12:22:19.695Z,61.10
2023-09-01T12:24:56.795Z,61.62
2023-09-01T12:27:23.654Z,61.18
2023-09-01T12:29:50.846Z,61.70
2023-09-01T12:32:18.581Z,61.82
2023-09-01T12:34:48.776Z,61.94
2023-09-01T12:37:15.494Z,61.78
2023-09-01T12:39:42.342Z,61.61
2023-09-01T12:42:08.902Z,61.98
2023-09-01T12:44:36.235Z,62.01
2023-09-01T12:47:02.788Z,61.98
2023-09-01T12:49:29.694Z,62.27
2023-09-01T12:51:56.216Z,62.36
2023-09-01T12:54:22.809Z,62.16
2023-09-01T12:56:49.355Z,62.12
2023-09-01T12:59:16.352Z,62.27
2023-09-01T13:01:42.850Z,61.92
2023-09-01T13:04:09.338Z,61.98
2023-09-01T13:06:35.834Z,61.75
2023-09-01T13:09:04.414Z,62.21
2023-09-01T13:11:30.903Z,61.74
2023-09-01T13:13:57.341Z,61.91
2023-09-01T13:16:31.122Z,61.84
2023-09-01T13:18:58.200Z,61.92
2023-09-01T13:21:24.695Z,61.93
2023-09-01T13:23:51.413Z,62.07
2023-09-01T13:26:17.968Z,62.06
2023-09-01T13:28:44.501Z,62.33
2023-09-01T13:31:10.976Z,62.55
2023-09-01T13:33:41.927Z,63.25
2023-09-01T13:36:09.361Z,63.62
2023-09-01T13:38:36.181Z,63.83
2023-09-01T13:41:02.745Z,63.98
2023-09-01T13:43:29.277Z,64.04
2023-09-01T13:45:56.661Z,64.37
2023-09-01T13:48:23.392Z,64.00
2023-09-01T13:50:49.859Z,64.54
2023-09-01T13:53:17.958Z,64.36
2023-09-01T13:55:44.623Z,64.33
2023-09-01T13:58:11.220Z,64.86
2023-09-01T14:00:37.759Z,65.28
2023-09-01T14:03:04.540Z,65.41
2023-09-01T14:05:31.018Z,65.57
2023-09-01T14:07:57.517Z,65.24
2023-09-01T14:10:24.044Z,65.09
2023-09-01T14:12:50.429Z,65.32
2023-09-01T14:15:17.259Z,65.72
2023-09-01T14:17:43.935Z,66.12
2023-09-01T14:20:10.928Z,66.48
2023-09-01T14:22:37.378Z,66.25
2023-09-01T14:25:04.073Z,65.70
2023-09-01T14:27:30.553Z,65.40
2023-09-01T14:29:57.008Z,65.66
2023-09-01T14:32:23.559Z,65.75
2023-09-01T14:34:50.053Z,65.79
2023-09-01T14:37:17.564Z,65.91
2023-09-01T14:39:44.075Z,65.21
2023-09-01T14:42:10.539Z,65.70
2023-09-01T14:44:37.061Z,65.29
2023-09-01T14:47:03.864Z,65.18
2023-09-01T14:49:30.415Z,65.06
2023-09-01T14:51:56.988Z,64.87
2023-09-01T14:54:23.445Z,65.14
2023-09-01T14:56:49.848Z,65.13
2023-09-01T14:59:19.335Z,64.91
2023-09-01T15:01:46.317Z,65.04
2023-09-01T15:04:12.872Z,64.98
2023-09-01T15:06:39.305Z,65.04
2023-09-01T15:09:05.742Z,65.02
2023-09-01T15:11:32.692Z,65.14
2023-09-01T15:13:59.155Z,65.45
2023-09-01T15:16:26.893Z,65.42
2023-09-01T15:18:53.438Z,66.39
2023-09-01T15:21:19.947Z,65.35
2023-09-01T15:23:48.351Z,65.79
2023-09-01T15:26:17.050Z,65.83
2023-09-01T15:28:43.473Z,65.66
2023-09-01T15:31:09.961Z,66.06
2023-09-01T15:33:36.414Z,65.93
2023-09-01T15:36:03.183Z,65.45
2023-09-01T15:38:30.885Z,65.64
2023-09-01T15:41:01.089Z,65.79
2023-09-01T15:43:28.148Z,65.59
2023-09-01T15:45:55.610Z,65.45
2023-09-01T15:48:23.588Z,66.16
2023-09-01T15:50:54.607Z,66.33
2023-09-01T15:53:21.052Z,65.88
2023-09-01T15:55:47.659Z,65.76
2023-09-01T15:58:14.109Z,65.24
2023-09-01T16:00:40.581Z,65.62
2023-09-01T16:03:08.792Z,65.81
2023-09-01T16:05:36.719Z,65.83
2023-09-01T16:08:04.037Z,65.82
2023-09-01T16:10:34.137Z,66.53
2023-09-01T16:13:00.569Z,66.13
2023-09-01T16:15:27.128Z,66.67
2023-09-01T16:17:54.618Z,65.98
2023-09-01T16:20:22.090Z,66.39
2023-09-01T16:22:48.929Z,66.08
2023-09-01T16:25:16.433Z,65.56
2023-09-01T16:27:43.657Z,66.50
2023-09-01T16:30:10.681Z,66.38
2023-09-01T16:32:37.256Z,66.07
2023-09-01T16:35:21.479Z,66.40
2023-09-01T16:37:50.147Z,66.18
2023-09-01T16:40:18.145Z,66.18
2023-09-01T16:42:45.568Z,66.20
2023-09-01T16:45:13.197Z,66.30
2023-09-01T16:47:40.712Z,66.60
2023-09-01T16:50:09.311Z,66.28
2023-09-01T16:52:35.775Z,66.63
2023-09-01T16:55:02.258Z,66.65
2023-09-01T16:57:28.826Z,66.12
2023-09-01T16:59:55.349Z,66.31
2023-09-01T17:02:21.889Z,66.76
2023-09-01T17:04:48.357Z,66.72
2023-09-01T17:07:14.815Z,67.21
2023-09-01T17:09:41.415Z,67.22
2023-09-01T17:12:10.743Z,67.19
2023-09-01T17:14:37.252Z,67.14
2023-09-01T17:17:03.840Z,67.40
2023-09-01T17:19:30.321Z,67.40
2023-09-01T17:21:56.831Z,67.10
2023-09-01T17:24:23.249Z,67.60
2023-09-01T17:26:49.676Z,66.99
2023-09-01T17:29:16.874Z,67.13
2023-09-01T17:31:43.411Z,67.01
2023-09-01T17:34:09.883Z,67.38
2023-09-01T17:36:36.413Z,67.93
2023-09-01T17:39:04.709Z,67.27
2023-09-01T17:41:36.635Z,67.82
2023-09-01T17:44:04.709Z,68.16
2023-09-01T17:46:31.455Z,68.33
2023-09-01T17:48:57.863Z,67.93
2023-09-01T17:51:27.904Z,68.07
2023-09-01T17:53:56.457Z,68.25
2023-09-01T17:56:24.068Z,68.28
2023-09-01T17:58:50.605Z,68.56
2023-09-01T18:01:18.052Z,68.53
2023-09-01T18:03:44.868Z,68.30
2023-09-01T18:06:13.478Z,68.75
2023-09-01T18:08:40.132Z,68.40
2023-09-01T18:11:06.678Z,68.35
2023-09-01T18:13:35.009Z,67.98
2023-09-01T18:16:04.996Z,67.97
2023-09-01T18:18:35.423Z,68.30
2023-09-01T18:21:04.121Z,68.37
2023-09-01T18:23:31.036Z,68.37
2023-09-01T18:26:21.532Z,68.15
2023-09-01T18:28:48.897Z,68.32
2023-09-01T18:31:21.685Z,68.15
2023-09-01T18:33:49.910Z,67.96
2023-09-01T18:36:21.257Z,68.15
2023-09-01T18:38:48.945Z,67.94
2023-09-01T18:41:15.502Z,68.37
2023-09-01T18:43:42.105Z,68.18
2023-09-01T18:46:08.634Z,68.11
2023-09-01T18:48:35.110Z,68.50
2023-09-01T18:51:04.387Z,68.26
2023-09-01T18:53:33.067Z,67.82
2023-09-01T18:56:00.763Z,68.02
2023-09-01T18:58:27.650Z,68.15
2023-09-01T19:00:54.699Z,68.13
2023-09-01T19:03:26.341Z,67.87
2023-09-01T19:05:56.724Z,68.08
2023-09-01T19:08:25.294Z,67.50
2023-09-01T19:10:54.544Z,68.18
2023-09-01T19:13:22.566Z,68.26
2023-09-01T19:15:54.782Z,67.96
2023-09-01T19:18:39.852Z,67.99
2023-09-01T19:21:06.318Z,67.95
2023-09-01T19:23:34.964Z,67.78
2023-09-01T19:26:07.495Z,67.74
2023-09-01T19:28:38.425Z,67.88
2023-09-01T19:31:08.103Z,68.04
2023-09-01T19:33:40.613Z,68.12
2023-09-01T19:36:16.661Z,68.03
2023-09-01T19:38:47.933Z,67.84
2023-09-01T19:41:14.645Z,68.10
2023-09-01T19:43:41.695Z,67.99
2023-09-01T19:46:08.817Z,68.02
2023-09-01T19:48:39.635Z,68.21
2023-09-01T19:51:06.919Z,68.20
2023-09-01T19:53:33.923Z,67.93
2023-09-01T19:56:13.970Z,68.10
2023-09-01T19:58:54.160Z,67.89
2023-09-01T20:01:25.224Z,68.18
2023-09-01T20:03:52.732Z,68.23
2023-09-01T20:06:26.099Z,68.17
2023-09-01T20:08:53.503Z,69.14
2023-09-01T20:11:21.549Z,69.44
2023-09-01T20:13:49.877Z,69.52
2023-09-01T20:16:21.800Z,69.46
2023-09-01T20:18:48.229Z,69.54
2023-09-01T20:21:16.573Z,68.60
2023-09-01T20:23:43.103Z,66.71
2023-09-01T20:26:09.624Z,66.50
2023-09-01T20:28:36.045Z,66.70
2023-09-01T20:31:02.561Z,66.28
2023-09-01T20:33:29.687Z,66.17
2023-09-01T20:35:56.186Z,66.61
2023-09-01T20:38:25.846Z,67.09
2023-09-01T20:40:53.088Z,67.07
2023-09-01T20:43:20.144Z,67.32
2023-09-01T20:45:46.760Z,66.63
2023-09-01T20:48:13.254Z,67.56
2023-09-01T20:50:39.739Z,66.93
2023-09-01T20:53:06.171Z,67.40
2023-09-01T20:55:33.066Z,67.27
2023-09-01T20:57:59.618Z,67.08
2023-09-01T21:00:26.741Z,67.39
2023-09-01T21:02:53.225Z,67.42
2023-09-01T21:05:21.344Z,67.44
2023-09-01T21:07:49.989Z,67.69
2023-09-01T21:10:18.220Z,67.65
2023-09-01T21:12:44.778Z,67.66
2023-09-01T21:15:11.288Z,67.48
2023-09-01T21:17:37.888Z,67.79
2023-09-01T21:20:05.081Z,67.72
2023-09-01T21:22:32.464Z,67.78
2023-09-01T21:24:58.892Z,67.74
2023-09-01T21:27:26.532Z,68.01
2023-09-01T21:29:54.847Z,67.54
2023-09-01T21:32:21.934Z,67.96
2023-09-01T21:34:49.566Z,67.64
2023-09-01T21:37:16.653Z,67.78
2023-09-01T21:39:43.660Z,67.66
2023-09-01T21:42:10.134Z,68.10
2023-09-01T21:44:36.648Z,67.78
2023-09-01T21:47:03.094Z,67.90
2023-09-01T21:49:29.509Z,68.18
2023-09-01T21:51:56.033Z,68.30
2023-09-01T21:54:22.509Z,68.34
2023-09-01T21:56:48.910Z,67.85
2023-09-01T21:59:15.354Z,67.85
2023-09-01T22:01:41.873Z,68.11
2023-09-01T22:04:08.339Z,67.99
2023-09-01T22:06:34.792Z,68.04
2023-09-01T22:09:01.276Z,67.97
2023-09-01T22:11:27.672Z,68.23
2023-09-01T22:13:54.810Z,67.94
2023-09-01T22:16:22.569Z,68.51
2023-09-01T22:18:49.053Z,68.48
2023-09-01T22:21:16.649Z,68.23
2023-09-01T22:23:43.044Z,68.27
2023-09-01T22:26:09.725Z,68.11
2023-09-01T22:28:36.244Z,68.49
2023-09-01T22:31:02.802Z,68.59
2023-09-01T22:33:29.390Z,68.26
2023-09-01T22:35:55.873Z,68.43
2023-09-01T22:38:22.479Z,68.55
2023-09-01T22:40:49.310Z,68.37
2023-09-01T22:43:19.655Z,68.42
2023-09-01T22:45:47.277Z,68.74
2023-09-01T22:48:13.763Z,68.67
2023-09-01T22:50:42.933Z,68.35
2023-09-01T22:53:09.447Z,68.29
2023-09-01T22:55:35.901Z,68.39
2023-09-01T22:58:02.390Z,68.60
2023-09-01T23:00:30.253Z,68.88
2023-09-01T23:02:58.009Z,68.65
2023-09-01T23:05:24.599Z,68.91
2023-09-01T23:07:51.215Z,68.75
2023-09-01T23:10:17.807Z,68.69
2023-09-01T23:12:44.258Z,68.46
2023-09-01T23:15:10.907Z,68.57
2023-09-01T23:17:37.411Z,68.70
2023-09-01T23:20:05.086Z,68.73
2023-09-01T23:22:31.568Z,68.81
2023-09-01T23:24:58.050Z,68.81
2023-09-01T23:27:25.504Z,68.92
2023-09-01T23:29:52.157Z,68.53
2023-09-01T23:32:18.641Z,69.00
2023-09-01T23:34:45.166Z,68.44
2023-09-01T23:37:11.676Z,68.97
2023-09-01T23:39:38.149Z,68.76
2023-09-01T23:42:04.944Z,68.82
2023-09-01T23:44:31.416Z,68.81
2023-09-01T23:46:58.041Z,69.03
2023-09-01T23:49:24.554Z,69.04
2023-09-01T23:51:51.018Z,69.02
2023-09-01T23:54:17.650Z,68.78
2023-09-01T23:56:44.525Z,68.55
2023-09-01T23:59:11.336Z,68.55
